createdAt,value
2018-09-19T00:00:17.943Z,17.57
2018-09-19T00:02:58.455Z,17.48
2018-09-19T00:05:28.226Z,17.39
2018-09-19T00:07:58.352Z,17.34
2018-09-19T00:10:28.188Z,17.34
2018-09-19T00:12:58.797Z,17.34
2018-09-19T00:15:28.476Z,17.34
2018-09-19T00:18:02.233Z,17.42
2018-09-19T00:20:32.337Z,17.51
2018-09-19T00:23:02.333Z,17.57
2018-09-19T00:25:31.928Z,17.53
2018-09-19T00:28:02.815Z,17.50
2018-09-19T00:30:32.453Z,17.50
2018-09-19T00:33:02.013Z,17.38
2018-09-19T00:35:32.022Z,17.37
2018-09-19T00:38:01.572Z,17.35
2018-09-19T00:40:32.274Z,17.36
2018-09-19T00:43:03.144Z,17.33
2018-09-19T00:45:32.767Z,17.34
2018-09-19T00:48:02.245Z,17.32
2018-09-19T00:50:31.722Z,17.27
2018-09-19T00:53:01.500Z,17.25
2018-09-19T00:55:31.139Z,17.18
2018-09-19T00:58:02.090Z,17.12
2018-09-19T01:00:31.751Z,17.04
2018-09-19T01:03:01.413Z,17.04
2018-09-19T01:05:30.924Z,17.00
2018-09-19T01:08:00.810Z,16.95
2018-09-19T01:10:30.318Z,16.92
2018-09-19T01:12:59.817Z,16.91
2018-09-19T01:15:29.641Z,16.83
2018-09-19T01:17:59.339Z,16.82
2018-09-19T01:20:28.961Z,16.81
2018-09-19T01:22:59.082Z,16.81
2018-09-19T01:25:28.498Z,16.78
2018-09-19T01:27:58.033Z,16.70
2018-09-19T01:30:27.943Z,16.67
2018-09-19T01:32:58.249Z,16.65
2018-09-19T01:35:27.728Z,16.63
2018-09-19T01:37:57.260Z,16.62
2018-09-19T01:40:26.775Z,16.63
2018-09-19T01:42:57.522Z,16.65
2018-09-19T01:45:27.272Z,16.57
2018-09-19T01:47:57.018Z,16.54
2018-09-19T01:50:26.900Z,16.60
2018-09-19T01:52:56.465Z,16.62
2018-09-19T01:55:26.108Z,16.64
2018-09-19T01:57:57.180Z,16.58
2018-09-19T02:00:26.940Z,16.61
2018-09-19T02:02:56.369Z,16.64
2018-09-19T02:05:25.985Z,16.61
2018-09-19T02:07:55.723Z,16.59
2018-09-19T02:10:25.302Z,16.57
2018-09-19T02:12:54.834Z,16.51
2018-09-19T02:15:24.814Z,16.50
2018-09-19T02:17:54.553Z,16.49
2018-09-19T02:20:24.169Z,16.46
2018-09-19T02:22:53.765Z,16.39
2018-09-19T02:25:23.353Z,16.36
2018-09-19T02:27:52.891Z,16.36
2018-09-19T02:30:29.853Z,16.34
2018-09-19T02:32:59.356Z,16.37
2018-09-19T02:35:28.959Z,16.39
2018-09-19T02:37:58.571Z,16.40
2018-09-19T02:40:28.375Z,16.43
2018-09-19T02:42:58.011Z,16.38
2018-09-19T02:45:27.726Z,16.38
2018-09-19T02:47:57.229Z,16.39
2018-09-19T02:50:26.816Z,16.33
2018-09-19T02:52:57.544Z,16.27
2018-09-19T02:55:33.192Z,16.27
2018-09-19T02:58:02.704Z,16.24
2018-09-19T03:00:32.231Z,16.20
2018-09-19T03:03:01.767Z,16.18
2018-09-19T03:05:31.601Z,16.18
2018-09-19T03:08:01.034Z,16.14
2018-09-19T03:10:30.689Z,16.18
2018-09-19T03:13:00.207Z,16.18
2018-09-19T03:15:32.206Z,16.21
2018-09-19T03:18:01.681Z,16.22
2018-09-19T03:20:31.289Z,16.26
2018-09-19T03:23:00.789Z,16.24
2018-09-19T03:25:32.813Z,16.23
2018-09-19T03:28:02.301Z,16.28
2018-09-19T03:30:31.742Z,16.29
2018-09-19T03:33:01.845Z,16.29
2018-09-19T03:35:31.443Z,16.28
2018-09-19T03:38:00.960Z,16.20
2018-09-19T03:40:32.268Z,16.14
2018-09-19T03:43:01.811Z,16.02
2018-09-19T03:45:31.413Z,15.94
2018-09-19T03:48:01.150Z,15.88
2018-09-19T03:50:34.225Z,15.86
2018-09-19T03:53:03.761Z,15.88
2018-09-19T03:55:33.278Z,15.84
2018-09-19T03:58:03.063Z,15.84
2018-09-19T04:00:33.042Z,15.75
2018-09-19T04:03:02.763Z,15.67
2018-09-19T04:05:32.438Z,15.65
2018-09-19T04:08:02.126Z,15.61
2018-09-19T04:10:31.684Z,15.56
2018-09-19T04:13:01.181Z,15.49
2018-09-19T04:15:31.113Z,15.43
2018-09-19T04:18:00.836Z,15.39
2018-09-19T04:20:32.416Z,15.34
2018-09-19T04:23:02.239Z,15.36
2018-09-19T04:25:32.119Z,15.39
2018-09-19T04:28:01.906Z,15.41
2018-09-19T04:30:31.986Z,15.39
2018-09-19T04:33:01.522Z,15.35
2018-09-19T04:35:38.120Z,15.38
2018-09-19T04:38:07.611Z,15.39
2018-09-19T04:40:37.143Z,15.39
2018-09-19T04:43:07.158Z,15.37
2018-09-19T04:45:42.052Z,15.32
2018-09-19T04:48:13.998Z,15.26
2018-09-19T04:50:52.866Z,15.19
2018-09-19T04:53:22.824Z,15.13
2018-09-19T04:55:52.454Z,15.10
2018-09-19T04:58:22.768Z,15.04
2018-09-19T05:00:52.549Z,15.00
2018-09-19T05:03:24.759Z,14.95
2018-09-19T05:05:54.595Z,14.92
2018-09-19T05:08:24.119Z,14.89
2018-09-19T05:10:53.618Z,14.86
2018-09-19T05:13:23.430Z,14.79
2018-09-19T05:15:52.980Z,14.82
2018-09-19T05:18:22.647Z,14.73
2018-09-19T05:20:52.175Z,14.73
2018-09-19T05:23:21.901Z,14.71
2018-09-19T05:25:53.066Z,14.74
2018-09-19T05:28:23.388Z,14.77
2018-09-19T05:30:53.559Z,14.75
2018-09-19T05:33:23.164Z,14.69
2018-09-19T05:35:52.781Z,14.74
2018-09-19T05:38:25.136Z,14.75
2018-09-19T05:40:54.717Z,14.75
2018-09-19T05:43:24.289Z,14.75
2018-09-19T05:45:53.959Z,14.69
2018-09-19T05:48:23.774Z,14.82
2018-09-19T05:50:53.630Z,14.87
2018-09-19T05:53:23.283Z,14.81
2018-09-19T05:55:53.106Z,14.91
2018-09-19T05:58:22.722Z,14.92
2018-09-19T06:00:52.273Z,14.93
2018-09-19T06:03:23.160Z,14.97
2018-09-19T06:05:52.844Z,15.03
2018-09-19T06:08:22.372Z,15.13
2018-09-19T06:10:51.879Z,15.26
2018-09-19T06:13:21.639Z,15.36
2018-09-19T06:15:51.156Z,15.44
2018-09-19T06:18:20.721Z,15.55
2018-09-19T06:20:50.277Z,15.66
2018-09-19T06:23:22.071Z,15.78
2018-09-19T06:25:51.673Z,15.94
2018-09-19T06:28:21.105Z,16.07
2018-09-19T06:30:50.556Z,16.23
2018-09-19T06:33:20.375Z,16.32
2018-09-19T06:35:49.941Z,16.40
2018-09-19T06:38:19.659Z,16.46
2018-09-19T06:40:49.196Z,16.56
2018-09-19T06:43:19.135Z,16.69
2018-09-19T06:45:48.672Z,16.82
2018-09-19T06:48:18.475Z,16.92
2018-09-19T06:50:47.926Z,17.05
2018-09-19T06:53:17.619Z,17.19
2018-09-19T06:55:47.468Z,17.29
2018-09-19T06:58:56.902Z,17.38
2018-09-19T07:01:26.499Z,17.57
2018-09-19T07:03:56.259Z,17.72
2018-09-19T07:06:25.799Z,17.84
2018-09-19T07:08:55.279Z,18.00
2018-09-19T07:11:24.729Z,18.15
2018-09-19T07:13:54.801Z,18.30
2018-09-19T07:16:24.472Z,18.46
2018-09-19T07:18:54.016Z,18.60
2018-09-19T07:21:24.836Z,18.87
2018-09-19T07:23:54.424Z,19.52
2018-09-19T07:26:23.753Z,20.13
2018-09-19T07:28:53.172Z,20.85
2018-09-19T07:31:22.890Z,21.50
2018-09-19T07:33:52.383Z,22.22
2018-09-19T07:36:21.843Z,22.68
2018-09-19T07:38:51.484Z,23.06
2018-09-19T07:41:21.387Z,23.51
2018-09-19T07:43:50.933Z,23.49
2018-09-19T07:46:20.462Z,24.01
2018-09-19T07:48:50.007Z,24.17
2018-09-19T07:51:19.498Z,24.70
2018-09-19T07:53:48.992Z,24.99
2018-09-19T07:56:18.534Z,24.92
2018-09-19T07:58:47.981Z,25.10
2018-09-19T08:01:17.515Z,25.42
2018-09-19T08:03:47.407Z,25.92
2018-09-19T08:06:17.090Z,25.81
2018-09-19T08:08:46.662Z,26.11
2018-09-19T08:11:16.210Z,26.10
2018-09-19T08:13:46.092Z,26.44
2018-09-19T08:16:15.595Z,26.57
2018-09-19T08:18:45.133Z,26.77
2018-09-19T08:21:14.654Z,27.21
2018-09-19T08:23:44.742Z,26.98
2018-09-19T08:26:14.209Z,26.91
2018-09-19T08:28:43.690Z,27.18
2018-09-19T08:31:13.313Z,27.26
2018-09-19T08:33:42.889Z,27.64
2018-09-19T08:36:12.604Z,27.73
2018-09-19T08:38:42.391Z,27.90
2018-09-19T08:41:11.824Z,28.31
2018-09-19T08:43:41.353Z,28.70
2018-09-19T08:46:11.166Z,29.14
2018-09-19T08:48:40.783Z,28.76
2018-09-19T08:51:10.245Z,28.93
2018-09-19T08:53:39.753Z,29.64
2018-09-19T08:56:09.639Z,30.41
2018-09-19T08:58:40.222Z,31.13
2018-09-19T09:01:09.960Z,31.27
2018-09-19T09:03:39.993Z,31.51
2018-09-19T09:06:09.533Z,32.28
2018-09-19T09:08:39.070Z,32.31
2018-09-19T09:11:09.350Z,32.68
2018-09-19T09:13:38.879Z,32.94
2018-09-19T09:16:08.764Z,32.95
2018-09-19T09:18:39.725Z,33.18
2018-09-19T09:21:09.380Z,33.57
2018-09-19T09:23:38.862Z,33.25
2018-09-19T09:26:09.798Z,32.89
2018-09-19T09:28:39.399Z,32.34
2018-09-19T09:31:09.278Z,31.45
2018-09-19T09:33:38.808Z,30.59
2018-09-19T09:36:09.656Z,30.34
2018-09-19T09:38:39.523Z,29.67
2018-09-19T09:41:09.371Z,29.68
2018-09-19T09:43:38.952Z,29.32
2018-09-19T09:46:08.788Z,28.79
2018-09-19T09:48:38.405Z,28.93
2018-09-19T09:51:08.213Z,29.21
2018-09-19T09:53:37.945Z,29.41
2018-09-19T09:56:07.566Z,29.57
2018-09-19T09:58:37.039Z,29.61
2018-09-19T10:01:07.862Z,29.77
2018-09-19T10:03:37.494Z,29.72
2018-09-19T10:06:07.073Z,29.76
2018-09-19T10:08:36.547Z,29.20
2018-09-19T10:11:07.731Z,28.58
2018-09-19T10:13:37.349Z,28.21
2018-09-19T10:16:08.413Z,28.09
2018-09-19T10:18:37.986Z,27.99
2018-09-19T10:21:07.885Z,28.22
2018-09-19T10:23:37.493Z,28.29
2018-09-19T10:26:07.387Z,27.97
2018-09-19T10:28:36.891Z,27.96
2018-09-19T10:31:06.544Z,28.57
2018-09-19T10:33:36.053Z,28.62
2018-09-19T10:36:09.642Z,28.47
2018-09-19T10:38:39.216Z,27.94
2018-09-19T10:41:09.169Z,27.91
2018-09-19T10:43:39.922Z,27.83
2018-09-19T10:46:10.025Z,27.83
2018-09-19T10:48:54.105Z,27.62
2018-09-19T10:51:24.635Z,27.52
2018-09-19T10:53:54.466Z,27.54
2018-09-19T10:56:24.064Z,27.48
2018-09-19T10:58:53.569Z,27.29
2018-09-19T11:01:24.200Z,27.18
2018-09-19T11:03:56.256Z,27.01
2018-09-19T11:06:25.814Z,26.98
2018-09-19T11:08:55.303Z,27.06
2018-09-19T11:11:24.874Z,27.35
2018-09-19T11:13:54.651Z,27.50
2018-09-19T11:16:24.348Z,27.62
2018-09-19T11:18:55.182Z,27.69
2018-09-19T11:21:24.642Z,27.65
2018-09-19T11:23:54.116Z,27.42
2018-09-19T11:26:23.617Z,27.33
2018-09-19T11:28:53.408Z,27.14
2018-09-19T11:31:22.836Z,27.10
2018-09-19T11:33:52.345Z,27.29
2018-09-19T11:36:22.127Z,27.44
2018-09-19T11:38:51.840Z,27.54
2018-09-19T11:41:21.346Z,27.67
2018-09-19T11:43:55.902Z,27.60
2018-09-19T11:46:28.194Z,27.81
2018-09-19T11:48:57.899Z,27.83
2018-09-19T11:51:27.670Z,27.92
2018-09-19T11:53:57.233Z,27.84
2018-09-19T11:56:26.850Z,27.88
2018-09-19T11:58:57.907Z,27.83
2018-09-19T12:01:27.580Z,27.97
2018-09-19T12:03:57.338Z,28.11
2018-09-19T12:06:27.138Z,27.92
2018-09-19T12:08:56.704Z,27.92
2018-09-19T12:11:26.125Z,27.82
2018-09-19T12:13:55.960Z,27.98
2018-09-19T12:16:25.456Z,28.12
2018-09-19T12:18:54.902Z,28.24
2018-09-19T12:21:24.481Z,28.40
2018-09-19T12:23:54.097Z,28.51
2018-09-19T12:26:23.655Z,28.75
2018-09-19T12:28:53.530Z,28.74
2018-09-19T12:31:23.185Z,28.65
2018-09-19T12:33:52.819Z,28.79
2018-09-19T12:36:23.135Z,28.92
2018-09-19T12:38:52.639Z,28.85
2018-09-19T12:41:22.194Z,28.92
2018-09-19T12:43:54.132Z,28.98
2018-09-19T12:46:23.934Z,29.00
2018-09-19T12:48:53.613Z,28.89
2018-09-19T12:51:23.085Z,28.91
2018-09-19T12:53:53.851Z,29.09
2018-09-19T12:56:23.282Z,29.22
2018-09-19T12:58:52.896Z,29.44
2018-09-19T13:01:22.412Z,29.65
2018-09-19T13:03:52.203Z,30.35
2018-09-19T13:06:21.797Z,30.70
2018-09-19T13:08:51.889Z,30.84
2018-09-19T13:11:21.477Z,30.99
2018-09-19T13:13:50.861Z,30.83
2018-09-19T13:16:20.385Z,30.25
2018-09-19T13:18:49.938Z,29.97
2018-09-19T13:21:19.805Z,29.86
2018-09-19T13:23:49.686Z,30.33
2018-09-19T13:26:20.128Z,30.32
2018-09-19T13:28:49.768Z,30.00
2018-09-19T13:31:21.164Z,30.10
2018-09-19T13:33:51.327Z,29.87
2018-09-19T13:36:20.915Z,30.06
2018-09-19T13:38:50.680Z,31.04
2018-09-19T13:41:20.450Z,31.05
2018-09-19T13:43:50.001Z,30.64
2018-09-19T13:46:19.900Z,30.44
2018-09-19T13:48:56.571Z,30.30
2018-09-19T13:51:26.362Z,30.43
2018-09-19T13:53:58.313Z,30.90
2018-09-19T13:56:27.955Z,32.10
2018-09-19T13:58:57.751Z,33.69
2018-09-19T14:01:27.255Z,34.44
2018-09-19T14:03:56.837Z,34.20
2018-09-19T14:06:26.758Z,34.58
2018-09-19T14:08:57.675Z,35.16
2018-09-19T14:11:27.281Z,36.13
2018-09-19T14:13:57.005Z,36.89
2018-09-19T14:16:26.536Z,37.40
2018-09-19T14:18:56.511Z,36.81
2018-09-19T14:21:26.327Z,34.91
2018-09-19T14:23:55.822Z,32.92
2018-09-19T14:26:27.335Z,31.83
2018-09-19T14:28:57.167Z,31.55
2018-09-19T14:31:27.397Z,31.27
2018-09-19T14:33:56.961Z,31.19
2018-09-19T14:36:26.798Z,32.54
2018-09-19T14:38:56.665Z,34.11
2018-09-19T14:44:32.882Z,33.93
2018-09-19T14:47:02.514Z,35.50
2018-09-19T14:49:32.218Z,35.72
2018-09-19T14:52:01.722Z,36.70
2018-09-19T14:54:32.021Z,37.85
2018-09-19T14:57:01.901Z,38.74
2018-09-19T14:59:31.470Z,38.22
2018-09-19T15:02:01.276Z,38.44
2018-09-19T15:04:30.897Z,39.51
2018-09-19T15:07:00.803Z,39.48
2018-09-19T15:09:30.340Z,39.20
2018-09-19T15:11:59.856Z,38.65
2018-09-19T15:14:29.460Z,37.83
2018-09-19T15:16:59.451Z,37.68
2018-09-19T15:19:29.775Z,37.59
2018-09-19T15:21:59.388Z,38.72
2018-09-19T15:24:29.640Z,38.55
2018-09-19T15:26:59.107Z,38.01
2018-09-19T15:29:29.943Z,37.33
2018-09-19T15:31:59.389Z,37.01
2018-09-19T15:34:30.083Z,37.69
2018-09-19T15:37:07.938Z,37.40
2018-09-19T15:39:37.568Z,35.88
2018-09-19T15:42:07.125Z,34.39
2018-09-19T15:44:36.745Z,32.92
2018-09-19T15:47:06.344Z,31.83
2018-09-19T15:49:37.655Z,31.28
2018-09-19T15:52:07.636Z,30.61
2018-09-19T15:54:37.409Z,30.29
2018-09-19T15:57:06.967Z,30.30
2018-09-19T15:59:36.454Z,30.17
2018-09-19T16:02:07.335Z,30.19
2018-09-19T16:04:36.800Z,30.06
2018-09-19T16:07:06.578Z,29.86
2018-09-19T16:09:36.197Z,29.23
2018-09-19T16:12:06.296Z,28.86
2018-09-19T16:14:35.918Z,28.78
2018-09-19T16:17:05.587Z,28.26
2018-09-19T16:19:35.552Z,28.13
2018-09-19T16:22:06.412Z,28.11
2018-09-19T16:24:36.486Z,27.83
2018-09-19T16:27:06.083Z,27.70
2018-09-19T16:29:36.134Z,27.27
2018-09-19T16:32:06.647Z,27.09
2018-09-19T16:34:39.954Z,26.82
2018-09-19T16:37:09.610Z,26.64
2018-09-19T16:39:39.292Z,26.51
2018-09-19T16:42:09.071Z,26.34
2018-09-19T16:44:42.119Z,26.23
2018-09-19T16:47:11.829Z,26.11
2018-09-19T16:49:41.240Z,25.99
2018-09-19T16:52:11.861Z,25.73
2018-09-19T16:54:41.710Z,25.53
2018-09-19T16:57:11.561Z,25.40
2018-09-19T16:59:42.918Z,25.23
2018-09-19T17:02:13.773Z,25.24
2018-09-19T17:04:43.292Z,25.17
2018-09-19T17:07:13.097Z,25.13
2018-09-19T17:09:42.913Z,25.07
2018-09-19T17:12:12.565Z,24.93
2018-09-19T17:14:42.653Z,24.90
2018-09-19T17:17:12.394Z,24.78
2018-09-19T17:19:42.273Z,24.66
2018-09-19T17:22:13.585Z,24.50
2018-09-19T17:24:43.963Z,24.38
2018-09-19T17:27:14.253Z,24.27
2018-09-19T17:29:43.736Z,24.17
2018-09-19T17:32:14.603Z,24.04
2018-09-19T17:34:45.001Z,23.94
2018-09-19T17:37:15.002Z,23.79
2018-09-19T17:39:44.399Z,23.69
2018-09-19T17:42:14.133Z,23.55
2018-09-19T17:44:43.602Z,23.42
2018-09-19T17:47:14.567Z,23.31
2018-09-19T17:49:44.615Z,23.24
2018-09-19T17:52:14.351Z,23.16
2018-09-19T17:54:44.142Z,23.02
2018-09-19T17:57:13.891Z,22.90
2018-09-19T17:59:43.608Z,22.82
2018-09-19T18:02:13.857Z,22.74
2018-09-19T18:04:44.469Z,22.63
2018-09-19T18:07:14.266Z,22.55
2018-09-19T18:09:44.386Z,22.50
2018-09-19T18:12:14.346Z,22.44
2018-09-19T18:14:44.344Z,22.38
2018-09-19T18:17:14.298Z,22.31
2018-09-19T18:19:46.544Z,22.24
2018-09-19T18:22:16.562Z,22.13
2018-09-19T18:24:46.669Z,21.99
2018-09-19T18:27:17.004Z,21.89
2018-09-19T18:29:46.619Z,21.81
2018-09-19T18:32:16.449Z,21.75
2018-09-19T18:34:46.460Z,21.70
2018-09-19T18:37:16.079Z,21.66
2018-09-19T18:39:48.044Z,21.59
2018-09-19T18:42:17.831Z,21.49
2018-09-19T18:44:47.409Z,21.43
2018-09-19T18:47:16.942Z,21.34
2018-09-19T18:49:46.609Z,21.24
2018-09-19T18:52:16.368Z,21.16
2018-09-19T18:54:46.347Z,21.09
2018-09-19T18:57:16.331Z,21.04
2018-09-19T18:59:45.931Z,20.97
2018-09-19T19:02:15.636Z,20.92
2018-09-19T19:04:46.026Z,20.90
2018-09-19T19:07:16.163Z,20.86
2018-09-19T19:09:45.906Z,20.79
2018-09-19T19:12:15.708Z,20.75
2018-09-19T19:14:45.333Z,20.68
2018-09-19T19:17:15.285Z,20.62
2018-09-19T19:19:48.555Z,20.50
2018-09-19T19:22:18.559Z,20.44
2018-09-19T19:24:51.148Z,20.41
2018-09-19T19:27:21.325Z,20.42
2018-09-19T19:29:51.009Z,20.43
2018-09-19T19:32:20.902Z,20.43
2018-09-19T19:34:50.900Z,20.41
2018-09-19T19:37:20.891Z,20.32
2018-09-19T19:39:50.879Z,20.28
2018-09-19T19:42:21.111Z,20.21
2018-09-19T19:44:51.347Z,20.16
2018-09-19T19:47:21.106Z,20.12
2018-09-19T19:49:50.984Z,20.04
2018-09-19T19:52:21.062Z,19.99
2018-09-19T19:54:50.751Z,19.94
2018-09-19T19:57:20.298Z,19.84
2018-09-19T19:59:50.568Z,19.67
2018-09-19T20:02:20.290Z,19.61
2018-09-19T20:04:50.513Z,19.51
2018-09-19T20:07:20.322Z,19.40
2018-09-19T20:09:50.034Z,19.36
2018-09-19T20:12:21.202Z,19.33
2018-09-19T20:14:51.441Z,19.32
2018-09-19T20:17:21.136Z,19.33
2018-09-19T20:19:50.909Z,19.25
2018-09-19T20:22:21.474Z,19.17
2018-09-19T20:24:52.131Z,19.14
2018-09-19T20:27:21.957Z,19.05
2018-09-19T20:29:53.964Z,19.02
2018-09-19T20:32:23.629Z,18.98
2018-09-19T20:34:53.328Z,18.94
2018-09-19T20:37:22.917Z,18.90
2018-09-19T20:39:54.046Z,18.85
2018-09-19T20:42:53.708Z,18.85
2018-09-19T20:45:26.125Z,18.80
2018-09-19T20:47:57.531Z,18.74
2018-09-19T20:50:27.597Z,18.69
2018-09-19T20:52:57.162Z,18.66
2018-09-19T20:55:27.863Z,18.58
2018-09-19T20:57:57.762Z,18.53
2018-09-19T21:00:27.675Z,18.47
2018-09-19T21:02:57.884Z,18.46
2018-09-19T21:05:27.864Z,18.44
2018-09-19T21:07:57.809Z,18.40
2018-09-19T21:10:42.006Z,18.42
2018-09-19T21:13:18.722Z,18.43
2018-09-19T21:15:48.939Z,18.45
2018-09-19T21:18:20.057Z,18.43
2018-09-19T21:20:51.760Z,18.40
2018-09-19T21:23:21.353Z,18.40
2018-09-19T21:25:52.895Z,18.39
2018-09-19T21:28:24.114Z,18.35
2018-09-19T21:30:53.626Z,18.33
2018-09-19T21:33:24.716Z,18.30
2018-09-19T21:35:54.461Z,18.36
2018-09-19T21:38:23.935Z,18.34
2018-09-19T21:40:58.447Z,18.31
2018-09-19T21:43:28.556Z,18.20
2018-09-19T21:45:59.009Z,18.13
2018-09-19T21:48:28.680Z,18.05
2018-09-19T21:50:58.622Z,17.96
2018-09-19T21:53:28.622Z,17.92
2018-09-19T21:55:58.156Z,17.92
2018-09-19T21:58:35.895Z,17.91
2018-09-19T22:01:09.501Z,17.82
2018-09-19T22:03:42.532Z,17.81
2018-09-19T22:06:12.430Z,17.73
2018-09-19T22:08:44.167Z,17.66
2018-09-19T22:11:13.812Z,17.62
2018-09-19T22:13:43.330Z,17.61
2018-09-19T22:16:13.771Z,17.66
2018-09-19T22:18:43.442Z,17.62
2018-09-19T22:21:13.024Z,17.55
2018-09-19T22:23:46.381Z,17.52
2018-09-19T22:26:15.977Z,17.53
2018-09-19T22:28:45.581Z,17.53
2018-09-19T22:31:15.941Z,17.48
2018-09-19T22:33:45.642Z,17.50
2018-09-19T22:36:15.221Z,17.50
2018-09-19T22:38:44.723Z,17.50
2018-09-19T22:41:14.235Z,17.57
2018-09-19T22:43:43.802Z,17.63
2018-09-19T22:46:13.407Z,17.56
2018-09-19T22:48:42.893Z,17.39
2018-09-19T22:51:13.836Z,17.27
2018-09-19T22:53:47.447Z,17.19
2018-09-19T22:56:17.005Z,17.10
2018-09-19T22:58:46.810Z,17.03
2018-09-19T23:01:16.558Z,17.01
2018-09-19T23:03:46.771Z,16.97
2018-09-19T23:06:16.331Z,16.97
2018-09-19T23:08:47.179Z,16.92
2018-09-19T23:11:16.721Z,16.87
2018-09-19T23:13:46.293Z,16.86
2018-09-19T23:16:21.493Z,16.81
2018-09-19T23:18:51.209Z,16.79
2018-09-19T23:21:20.678Z,16.79
2018-09-19T23:23:50.285Z,16.73
2018-09-19T23:26:24.191Z,16.70
2018-09-19T23:28:54.322Z,16.68
2018-09-19T23:31:24.127Z,16.65
2018-09-19T23:33:55.983Z,16.64
2018-09-19T23:36:25.816Z,16.61
2018-09-19T23:38:55.402Z,16.61
2018-09-19T23:41:25.160Z,16.58
2018-09-19T23:43:56.076Z,16.62
2018-09-19T23:46:33.476Z,16.61
2018-09-19T23:49:03.090Z,16.62
2018-09-19T23:51:33.125Z,16.59
2018-09-19T23:54:03.112Z,16.57
2018-09-19T23:56:32.655Z,16.51
2018-09-19T23:59:02.356Z,16.50
